Time,TemperatureF,DewpointF,PressureIn,WindDirection,WindDirectionDegrees,WindSpeedMPH,WindSpeedGustMPH,Humidity,HourlyPrecipIn,Conditions,Clouds,dailyrainin,SoftwareType,DateUTC
2013-02-17 00:01:00,53.6,20.5,30.15,SW,216,4.0,10.1,27,0.00,,,-99.99,FreeWX 2.05,2013-02-17 05:01:00,
2013-02-17 00:11:00,53.1,19.9,30.15,SW,221,3.0,8.3,27,0.00,,,-99.99,FreeWX 2.05,2013-02-17 05:11:00,
2013-02-17 00:21:00,52.9,18.9,30.15,SW,218,4.0,8.7,26,0.00,,,-99.99,FreeWX 2.05,2013-02-17 05:21:00,
2013-02-17 00:31:00,52.7,19.8,30.15,SSW,208,4.0,12.1,27,0.00,,,-99.99,FreeWX 2.05,2013-02-17 05:31:00,
2013-02-17 00:41:00,52.5,19.6,30.15,SSW,209,4.0,10.5,27,0.00,,,-99.99,FreeWX 2.05,2013-02-17 05:41:00,
2013-02-17 00:51:00,52.5,19.6,30.15,SSW,195,4.0,10.1,27,0.00,,,-99.99,FreeWX 2.05,2013-02-17 05:51:00,
2013-02-17 01:01:00,52.0,19.0,30.18,SW,217,3.0,8.7,27,0.00,,,-99.99,FreeWX 2.05,2013-02-17 06:01:00,
2013-02-17 01:11:00,51.8,18.9,30.18,SSW,197,4.0,9.6,27,0.00,,,-99.99,FreeWX 2.05,2013-02-17 06:11:00,
2013-02-17 01:21:00,51.8,18.9,30.18,South,190,4.0,8.7,27,0.00,,,-99.99,FreeWX 2.05,2013-02-17 06:21:00,
2013-02-17 01:31:00,51.6,18.7,30.18,SW,222,3.0,8.7,27,0.00,,,-99.99,FreeWX 2.05,2013-02-17 06:31:00,
2013-02-17 01:41:00,51.3,17.6,30.18,SSW,204,4.0,11.0,26,0.00,,,-99.99,FreeWX 2.05,2013-02-17 06:41:00,
2013-02-17 01:51:00,51.3,17.6,30.18,SSW,206,3.0,10.1,26,0.00,,,-99.99,FreeWX 2.05,2013-02-17 06:51:00,
2013-02-17 02:12:00,50.9,17.2,30.18,South,187,3.0,9.6,26,0.00,,,-99.99,FreeWX 2.05,2013-02-17 07:12:00,
2013-02-17 02:22:00,50.5,17.8,30.18,SSW,204,3.0,6.9,27,0.00,,,-99.99,FreeWX 2.05,2013-02-17 07:22:00,
2013-02-17 02:32:00,50.2,17.4,30.18,SW,226,3.0,6.9,27,0.00,,,-99.99,FreeWX 2.05,2013-02-17 07:32:00,
2013-02-17 02:42:00,50.2,16.7,30.18,South,186,3.0,8.3,26,0.00,,,-99.99,FreeWX 2.05,2013-02-17 07:42:00,
2013-02-17 02:52:00,49.6,16.2,30.18,SSW,201,2.0,6.3,26,0.00,,,-99.99,FreeWX 2.05,2013-02-17 07:52:00,
2013-02-17 03:02:00,49.6,16.2,30.18,SSW,202,2.0,6.7,26,0.00,,,-99.99,FreeWX 2.05,2013-02-17 08:02:00,
2013-02-17 03:12:00,49.1,16.5,30.18,SW,232,3.0,7.4,27,0.00,,,-99.99,FreeWX 2.05,2013-02-17 08:12:00,
2013-02-17 03:22:00,48.6,16.2,30.18,SW,221,2.0,5.4,27,0.00,,,-99.99,FreeWX 2.05,2013-02-17 08:22:00,
2013-02-17 03:32:00,48.2,15.8,30.18,SW,229,3.0,5.8,27,0.00,,,-99.99,FreeWX 2.05,2013-02-17 08:32:00,
2013-02-17 03:42:00,48.0,15.6,30.18,SW,218,3.0,5.4,27,0.00,,,-99.99,FreeWX 2.05,2013-02-17 08:42:00,
2013-02-17 03:52:00,48.0,15.6,30.21,SW,223,3.0,6.3,27,0.00,,,-99.99,FreeWX 2.05,2013-02-17 08:52:00,
2013-02-17 04:02:00,47.8,15.4,30.18,SW,227,3.0,6.9,27,0.00,,,-99.99,FreeWX 2.05,2013-02-17 09:02:00,
2013-02-17 04:12:00,47.1,14.9,30.18,SW,234,2.0,4.5,27,0.00,,,-99.99,FreeWX 2.05,2013-02-17 09:12:00,
2013-02-17 04:22:00,46.0,14.0,30.21,SW,235,3.0,5.8,27,0.00,,,-99.99,FreeWX 2.05,2013-02-17 09:22:00,
2013-02-17 04:32:00,45.1,13.1,30.21,SW,236,3.0,5.4,27,0.00,,,-99.99,FreeWX 2.05,2013-02-17 09:32:00,
2013-02-17 04:42:00,45.1,13.1,30.21,WSW,239,2.0,4.5,27,0.00,,,-99.99,FreeWX 2.05,2013-02-17 09:42:00,
2013-02-17 04:52:00,44.8,12.9,30.21,WSW,243,2.0,5.4,27,0.00,,,-99.99,FreeWX 2.05,2013-02-17 09:52:00,
2013-02-17 05:02:00,44.8,12.9,30.21,SW,235,2.0,4.9,27,0.00,,,-99.99,FreeWX 2.05,2013-02-17 10:02:00,
2013-02-17 05:12:00,44.6,12.7,30.21,SW,235,3.0,5.8,27,0.00,,,-99.99,FreeWX 2.05,2013-02-17 10:12:00,
2013-02-17 05:22:00,44.2,12.4,30.21,SW,236,2.0,4.9,27,0.00,,,-99.99,FreeWX 2.05,2013-02-17 10:22:00,
2013-02-17 05:32:00,43.9,12.0,30.21,WSW,241,2.0,5.8,27,0.00,,,-99.99,FreeWX 2.05,2013-02-17 10:32:00,
2013-02-17 05:42:00,43.7,12.0,30.21,WSW,238,2.0,5.8,27,0.00,,,-99.99,FreeWX 2.05,2013-02-17 10:42:00,
2013-02-17 05:52:00,43.3,12.4,30.21,SW,231,3.0,6.3,28,0.00,,,-99.99,FreeWX 2.05,2013-02-17 10:52:00,
2013-02-17 06:02:00,42.8,9.5,30.21,SW,230,3.0,5.4,25,0.00,,,-99.99,FreeWX 2.05,2013-02-17 11:02:00,
2013-02-17 06:12:00,42.6,9.3,30.21,SW,233,3.0,6.3,25,0.00,,,-99.99,FreeWX 2.05,2013-02-17 11:12:00,
2013-02-17 06:22:00,42.6,9.3,30.21,WSW,237,2.0,4.9,25,0.00,,,-99.99,FreeWX 2.05,2013-02-17 11:22:00,
2013-02-17 06:32:00,42.1,8.8,30.21,WSW,242,3.0,5.4,25,0.00,,,-99.99,FreeWX 2.05,2013-02-17 11:32:00,
2013-02-17 06:42:00,41.9,8.6,30.21,SW,236,3.0,5.4,25,0.00,,,-99.99,FreeWX 2.05,2013-02-17 11:42:00,
2013-02-17 06:52:00,41.5,9.3,30.21,WSW,240,2.0,5.8,26,0.00,,,-99.99,FreeWX 2.05,2013-02-17 11:52:00,
2013-02-17 07:02:00,41.4,9.1,30.21,SW,233,3.0,5.8,26,0.00,,,-99.99,FreeWX 2.05,2013-02-17 12:02:00,
2013-02-17 07:12:00,41.2,9.0,30.21,WSW,239,2.0,5.8,26,0.00,,,-99.99,FreeWX 2.05,2013-02-17 12:12:00,
2013-02-17 07:22:00,41.0,8.8,30.21,WSW,237,3.0,6.7,26,0.00,,,-99.99,FreeWX 2.05,2013-02-17 12:22:00,
2013-02-17 07:32:00,41.4,9.1,30.21,SW,233,3.0,5.8,26,0.00,,,-99.99,FreeWX 2.05,2013-02-17 12:32:00,
2013-02-17 07:42:00,41.5,9.3,30.21,SW,231,3.0,6.7,26,0.00,,,-99.99,FreeWX 2.05,2013-02-17 12:42:00,
2013-02-17 07:52:00,41.7,9.3,30.21,SW,230,4.0,6.9,26,0.00,,,-99.99,FreeWX 2.05,2013-02-17 12:52:00,
2013-02-17 08:02:00,42.1,8.8,30.21,SW,231,3.0,6.7,25,0.00,,,-99.99,FreeWX 2.05,2013-02-17 13:02:00,
2013-02-17 08:12:00,42.4,9.1,30.21,SW,236,3.0,6.9,25,0.00,,,-99.99,FreeWX 2.05,2013-02-17 13:12:00,
2013-02-17 08:22:00,43.0,9.7,30.21,SW,232,3.0,6.3,25,0.00,,,-99.99,FreeWX 2.05,2013-02-17 13:22:00,
2013-02-17 08:32:00,43.3,9.9,30.21,SW,231,4.0,8.3,25,0.00,,,-99.99,FreeWX 2.05,2013-02-17 13:32:00,
2013-02-17 08:42:00,43.7,10.2,30.21,SW,235,4.0,7.4,25,0.00,,,-99.99,FreeWX 2.05,2013-02-17 13:42:00,
2013-02-17 08:52:00,43.9,10.4,30.21,SW,229,4.0,6.9,25,0.00,,,-99.99,FreeWX 2.05,2013-02-17 13:52:00,
2013-02-17 09:02:00,44.4,10.8,30.21,SW,231,3.0,7.8,25,0.00,,,-99.99,FreeWX 2.05,2013-02-17 14:02:00,
2013-02-17 09:12:00,44.8,11.1,30.21,SW,233,4.0,6.9,25,0.00,,,-99.99,FreeWX 2.05,2013-02-17 14:12:00,
2013-02-17 09:22:00,45.3,11.7,30.21,SW,230,4.0,7.8,25,0.00,,,-99.99,FreeWX 2.05,2013-02-17 14:22:00,
2013-02-17 09:32:00,45.9,11.1,30.21,SW,232,4.0,6.9,24,0.00,,,-99.99,FreeWX 2.05,2013-02-17 14:32:00,
2013-02-17 09:42:00,46.6,11.7,30.21,SW,228,3.0,6.7,24,0.00,,,-99.99,FreeWX 2.05,2013-02-17 14:42:00,
2013-02-17 09:52:00,47.1,12.2,30.21,SW,227,3.0,6.9,24,0.00,,,-99.99,FreeWX 2.05,2013-02-17 14:52:00,
2013-02-17 10:02:00,47.7,12.7,30.21,SW,229,3.0,5.4,24,0.00,,,-99.99,FreeWX 2.05,2013-02-17 15:02:00,
2013-02-17 10:12:00,47.5,12.6,30.21,SW,229,3.0,6.3,24,0.00,,,-99.99,FreeWX 2.05,2013-02-17 15:12:00,
2013-02-17 10:22:00,47.5,12.6,30.21,SW,219,4.0,6.9,24,0.00,,,-99.99,FreeWX 2.05,2013-02-17 15:22:00,
2013-02-17 10:32:00,48.0,12.9,30.21,SW,223,3.0,7.4,24,0.00,,,-99.99,FreeWX 2.05,2013-02-17 15:32:00,
2013-02-17 10:42:00,48.7,13.6,30.21,SW,225,3.0,6.7,24,0.00,,,-99.99,FreeWX 2.05,2013-02-17 15:42:00,
2013-02-17 10:52:00,48.9,15.6,30.21,SSW,213,4.0,8.7,26,0.00,,,-99.99,FreeWX 2.05,2013-02-17 15:52:00,
2013-02-17 11:02:00,49.5,16.0,30.21,SSW,202,3.0,9.2,26,0.00,,,-99.99,FreeWX 2.05,2013-02-17 16:02:00,
2013-02-17 11:12:00,49.8,16.3,30.21,SW,222,3.0,6.9,26,0.00,,,-99.99,FreeWX 2.05,2013-02-17 16:12:00,
2013-02-17 11:22:00,50.0,16.5,30.21,SW,222,3.0,5.8,26,0.00,,,-99.99,FreeWX 2.05,2013-02-17 16:22:00,
2013-02-17 11:32:00,49.8,16.3,30.21,SW,220,4.0,6.7,26,0.00,,,-99.99,FreeWX 2.05,2013-02-17 16:32:00,
2013-02-17 11:42:00,49.8,16.3,30.21,SW,220,4.0,6.9,26,0.00,,,-99.99,FreeWX 2.05,2013-02-17 16:42:00,
2013-02-17 11:52:00,50.2,16.7,30.21,SSW,193,4.0,9.2,26,0.00,,,-99.99,FreeWX 2.05,2013-02-17 16:52:00,
2013-02-17 12:02:00,51.4,17.8,30.21,South,190,4.0,11.0,26,0.00,,,-99.99,FreeWX 2.05,2013-02-17 17:02:00,
2013-02-17 12:12:00,50.7,17.1,30.21,SSW,210,4.0,7.8,26,0.00,,,-99.99,FreeWX 2.05,2013-02-17 17:12:00,
2013-02-17 12:22:00,51.6,17.8,30.21,SSW,212,3.0,7.4,26,0.00,,,-99.99,FreeWX 2.05,2013-02-17 17:22:00,
2013-02-17 12:32:00,52.2,18.3,30.21,SSW,192,4.0,10.1,26,0.00,,,-99.99,FreeWX 2.05,2013-02-17 17:32:00,
2013-02-17 12:42:00,52.2,18.3,30.21,SSW,195,4.0,11.0,26,0.00,,,-99.99,FreeWX 2.05,2013-02-17 17:42:00,
2013-02-17 12:52:00,52.3,15.6,30.21,SSW,203,3.0,6.9,23,0.00,,,-99.99,FreeWX 2.05,2013-02-17 17:52:00,
2013-02-17 13:02:00,52.5,15.8,30.21,SSW,198,4.0,8.3,23,0.00,,,-99.99,FreeWX 2.05,2013-02-17 18:02:00,
2013-02-17 13:12:00,52.0,15.4,30.21,SSW,212,3.0,6.3,23,0.00,,,-99.99,FreeWX 2.05,2013-02-17 18:12:00,
2013-02-17 13:22:00,52.3,15.6,30.21,South,190,4.0,8.3,23,0.00,,,-99.99,FreeWX 2.05,2013-02-17 18:22:00,
2013-02-17 13:32:00,52.5,15.8,30.21,SSW,193,3.0,8.3,23,0.00,,,-99.99,FreeWX 2.05,2013-02-17 18:32:00,
2013-02-17 13:42:00,53.1,16.3,30.21,SW,216,3.0,6.9,23,0.00,,,-99.99,FreeWX 2.05,2013-02-17 18:42:00,
2013-02-17 13:52:00,53.4,16.5,30.21,SW,214,3.0,8.7,23,0.00,,,-99.99,FreeWX 2.05,2013-02-17 18:52:00,
2013-02-17 14:02:00,54.1,17.2,30.21,SSW,194,3.0,8.3,23,0.00,,,-99.99,FreeWX 2.05,2013-02-17 19:02:00,
2013-02-17 14:12:00,54.7,16.5,30.21,SSE,157,4.0,10.5,22,0.00,,,-99.99,FreeWX 2.05,2013-02-17 19:12:00,
2013-02-17 14:22:00,54.7,16.5,30.21,SSE,159,4.0,8.7,22,0.00,,,-99.99,FreeWX 2.05,2013-02-17 19:22:00,
2013-02-17 14:32:00,53.8,16.9,30.21,SSW,208,3.0,7.4,23,0.00,,,-99.99,FreeWX 2.05,2013-02-17 19:32:00,
2013-02-17 14:42:00,53.8,16.9,30.21,SSW,207,3.0,6.7,23,0.00,,,-99.99,FreeWX 2.05,2013-02-17 19:42:00,
2013-02-17 14:52:00,55.0,16.9,30.21,SSE,152,3.0,7.8,22,0.00,,,-99.99,FreeWX 2.05,2013-02-17 19:52:00,
2013-02-17 15:02:00,55.4,17.2,30.21,SSE,163,3.0,8.3,22,0.00,,,-99.99,FreeWX 2.05,2013-02-17 20:02:00,
2013-02-17 15:12:00,53.6,16.7,30.21,SSW,212,3.0,7.4,23,0.00,,,-99.99,FreeWX 2.05,2013-02-17 20:12:00,
2013-02-17 15:22:00,55.0,16.9,30.21,SE,130,3.0,8.7,22,0.00,,,-99.99,FreeWX 2.05,2013-02-17 20:22:00,
2013-02-17 15:32:00,54.0,17.1,30.21,South,189,3.0,8.7,23,0.00,,,-99.99,FreeWX 2.05,2013-02-17 20:32:00,
2013-02-17 15:42:00,53.6,16.7,30.21,South,191,3.0,7.8,23,0.00,,,-99.99,FreeWX 2.05,2013-02-17 20:42:00,
2013-02-17 15:52:00,54.7,16.5,30.21,ESE,115,4.0,9.2,22,0.00,,,-99.99,FreeWX 2.05,2013-02-17 20:52:00,
2013-02-17 16:13:00,54.0,17.1,30.21,SSE,163,4.0,9.6,23,0.00,,,-99.99,FreeWX 2.05,2013-02-17 21:13:00,
2013-02-17 16:23:00,53.6,16.7,30.21,SSE,156,4.0,9.6,23,0.00,,,-99.99,FreeWX 2.05,2013-02-17 21:23:00,
2013-02-17 16:33:00,53.2,16.3,30.21,SSE,151,3.0,9.6,23,0.00,,,-99.99,FreeWX 2.05,2013-02-17 21:33:00,
2013-02-17 16:43:00,52.7,16.0,30.21,South,185,3.0,7.4,23,0.00,,,-99.99,FreeWX 2.05,2013-02-17 21:43:00,
2013-02-17 16:53:00,51.3,14.7,30.21,SSW,211,3.0,7.8,23,0.00,,,-99.99,FreeWX 2.05,2013-02-17 21:53:00,
2013-02-17 17:03:00,51.6,15.1,30.21,SSW,200,2.0,5.8,23,0.00,,,-99.99,FreeWX 2.05,2013-02-17 22:03:00,
2013-02-17 17:13:00,51.4,14.9,30.21,SSE,147,3.0,6.7,23,0.00,,,-99.99,FreeWX 2.05,2013-02-17 22:13:00,
2013-02-17 17:23:00,51.4,14.9,30.21,SSE,152,2.0,6.9,23,0.00,,,-99.99,FreeWX 2.05,2013-02-17 22:23:00,
2013-02-17 17:33:00,50.7,15.3,30.21,South,183,2.0,8.3,24,0.00,,,-99.99,FreeWX 2.05,2013-02-17 22:33:00,
2013-02-17 17:43:00,50.7,15.3,30.21,SSE,151,1.0,6.3,24,0.00,,,-99.99,FreeWX 2.05,2013-02-17 22:43:00,
2013-02-17 17:53:00,50.2,14.7,30.21,South,183,2.0,5.4,24,0.00,,,-99.99,FreeWX 2.05,2013-02-17 22:53:00,
2013-02-17 18:13:00,49.3,14.0,30.21,SSW,209,1.0,5.8,24,0.00,,,-99.99,FreeWX 2.05,2013-02-17 23:13:00,
2013-02-17 18:23:00,48.9,13.8,30.21,SSE,164,1.0,4.9,24,0.00,,,-99.99,FreeWX 2.05,2013-02-17 23:23:00,
2013-02-17 18:33:00,48.7,13.6,30.21,North,-999,0.0,4.0,24,0.00,,,-99.99,FreeWX 2.05,2013-02-17 23:33:00,
2013-02-17 18:43:00,48.6,13.5,30.21,North,-999,0.0,4.5,24,0.00,,,-99.99,FreeWX 2.05,2013-02-17 23:43:00,
2013-02-17 18:53:00,48.0,12.9,30.21,North,-999,0.0,2.7,24,0.00,,,-99.99,FreeWX 2.05,2013-02-17 23:53:00,
2013-02-17 19:03:00,47.8,12.7,30.21,North,-999,0.0,0.0,24,0.00,,,-99.99,FreeWX 2.05,2013-02-18 00:03:00,
2013-02-17 19:13:00,47.5,12.6,30.21,North,-999,0.0,0.0,24,0.00,,,-99.99,FreeWX 2.05,2013-02-18 00:13:00,
2013-02-17 19:23:00,47.1,12.2,30.21,North,-999,0.0,0.0,24,0.00,,,-99.99,FreeWX 2.05,2013-02-18 00:23:00,
2013-02-17 19:33:00,47.1,14.9,30.21,North,-999,0.0,0.0,27,0.00,,,-99.99,FreeWX 2.05,2013-02-18 00:33:00,
2013-02-17 19:43:00,46.8,14.5,30.21,North,-999,0.0,0.0,27,0.00,,,-99.99,FreeWX 2.05,2013-02-18 00:43:00,
2013-02-17 19:53:00,46.4,14.2,30.21,North,-999,0.0,0.0,27,0.00,,,-99.99,FreeWX 2.05,2013-02-18 00:53:00,
2013-02-17 20:03:00,46.4,14.2,30.21,North,-999,0.0,0.0,27,0.00,,,-99.99,FreeWX 2.05,2013-02-18 01:03:00,
2013-02-17 20:13:00,46.0,14.0,30.21,North,-999,0.0,0.0,27,0.00,,,-99.99,FreeWX 2.05,2013-02-18 01:13:00,
2013-02-17 20:23:00,45.9,13.8,30.21,North,-999,0.0,0.0,27,0.00,,,-99.99,FreeWX 2.05,2013-02-18 01:23:00,
2013-02-17 20:33:00,45.7,13.6,30.21,North,-999,0.0,0.0,27,0.00,,,-99.99,FreeWX 2.05,2013-02-18 01:33:00,
2013-02-17 20:43:00,45.3,14.2,30.21,North,-999,0.0,0.0,28,0.00,,,-99.99,FreeWX 2.05,2013-02-18 01:43:00,
2013-02-17 20:53:00,45.0,13.8,30.21,North,-999,0.0,0.0,28,0.00,,,-99.99,FreeWX 2.05,2013-02-18 01:53:00,
2013-02-17 21:03:00,44.6,13.5,30.21,North,-999,0.0,0.0,28,0.00,,,-99.99,FreeWX 2.05,2013-02-18 02:03:00,
2013-02-17 21:13:00,44.1,13.1,30.21,North,-999,0.0,0.0,28,0.00,,,-99.99,FreeWX 2.05,2013-02-18 02:13:00,
2013-02-17 21:23:00,43.7,12.7,30.21,North,-999,0.0,0.0,28,0.00,,,-99.99,FreeWX 2.05,2013-02-18 02:23:00,
2013-02-17 21:33:00,43.5,13.5,30.21,North,-999,0.0,0.0,29,0.00,,,-99.99,FreeWX 2.05,2013-02-18 02:33:00,
2013-02-17 21:43:00,43.2,13.1,30.21,North,-999,0.0,0.0,29,0.00,,,-99.99,FreeWX 2.05,2013-02-18 02:43:00,
2013-02-17 21:53:00,43.0,12.9,30.21,North,-999,0.0,0.0,29,0.00,,,-99.99,FreeWX 2.05,2013-02-18 02:53:00,
2013-02-17 22:03:00,42.6,12.6,30.21,North,-999,0.0,0.0,29,0.00,,,-99.99,FreeWX 2.05,2013-02-18 03:03:00,
2013-02-17 22:13:00,42.4,13.3,30.21,North,-999,0.0,0.0,30,0.00,,,-99.99,FreeWX 2.05,2013-02-18 03:13:00,
2013-02-17 22:23:00,42.3,13.1,30.21,North,-999,0.0,0.0,30,0.00,,,-99.99,FreeWX 2.05,2013-02-18 03:23:00,
2013-02-17 22:33:00,42.1,13.6,30.21,North,-999,0.0,0.0,31,0.00,,,-99.99,FreeWX 2.05,2013-02-18 03:33:00,
2013-02-17 22:43:00,41.7,13.3,30.21,North,-999,0.0,0.0,31,0.00,,,-99.99,FreeWX 2.05,2013-02-18 03:43:00,
2013-02-17 22:53:00,41.7,14.0,30.21,North,-999,0.0,0.0,32,0.00,,,-99.99,FreeWX 2.05,2013-02-18 03:53:00,
2013-02-17 23:03:00,41.5,13.8,30.21,North,-999,0.0,0.0,32,0.00,,,-99.99,FreeWX 2.05,2013-02-18 04:03:00,
2013-02-17 23:13:00,41.4,13.8,30.21,North,-999,0.0,0.0,32,0.00,,,-99.99,FreeWX 2.05,2013-02-18 04:13:00,
2013-02-17 23:23:00,41.4,14.4,30.21,North,-999,0.0,0.0,33,0.00,,,-99.99,FreeWX 2.05,2013-02-18 04:23:00,
2013-02-17 23:33:00,41.4,14.4,30.21,North,-999,0.0,0.0,33,0.00,,,-99.99,FreeWX 2.05,2013-02-18 04:33:00,
2013-02-17 23:43:00,41.2,14.4,30.21,North,-999,0.0,0.0,33,0.00,,,-99.99,FreeWX 2.05,2013-02-18 04:43:00,
2013-02-17 23:53:00,40.8,14.7,30.21,North,-999,0.0,0.0,34,0.00,,,-99.99,FreeWX 2.05,2013-02-18 04:53:00,